createdAt,value
2022-08-05T00:00:46.702Z,100380.63
2022-08-05T00:03:20.097Z,100384.09
2022-08-05T00:06:05.142Z,100388.13
2022-08-05T00:08:35.702Z,100394.91
2022-08-05T00:11:07.493Z,100390.72
2022-08-05T00:13:47.217Z,100390.44
2022-08-05T00:16:36.281Z,100367.16
2022-08-05T00:19:07.507Z,100341.03
2022-08-05T00:21:35.968Z,100314.06
2022-08-05T00:24:11.051Z,100298.78
2022-08-05T00:26:50.803Z,100295.09
2022-08-05T00:29:19.515Z,100247.00
2022-08-05T00:32:10.247Z,100223.81
2022-08-05T00:35:05.542Z,100247.47
2022-08-05T00:37:35.856Z,100281.66
2022-08-05T00:40:27.467Z,100339.84
2022-08-05T00:43:00.246Z,100406.09
2022-08-05T00:45:38.970Z,100441.34
2022-08-05T00:48:11.648Z,100450.50
2022-08-05T00:50:41.284Z,100438.22
2022-08-05T00:53:09.605Z,100436.91
2022-08-05T00:55:56.009Z,100449.94
2022-08-05T00:58:27.353Z,100449.94
2022-08-05T01:00:55.018Z,100446.75
2022-08-05T01:03:22.776Z,100430.88
2022-08-05T01:05:51.509Z,100403.44
2022-08-05T01:08:41.930Z,100374.88
2022-08-05T01:11:14.613Z,100368.47
2022-08-05T01:14:28.506Z,100356.75
2022-08-05T01:17:09.054Z,100356.47
2022-08-05T01:20:02.306Z,100384.94
2022-08-05T01:22:47.591Z,100423.28
2022-08-05T01:25:53.326Z,100471.44
2022-08-05T01:28:20.571Z,100485.16
2022-08-05T01:30:55.297Z,100453.06
2022-08-05T01:33:35.622Z,100441.59
2022-08-05T01:36:13.170Z,100422.84
2022-08-05T01:38:45.693Z,100420.34
2022-08-05T01:41:18.868Z,100429.25
2022-08-05T01:43:51.158Z,100419.41
2022-08-05T01:46:42.467Z,100421.00
2022-08-05T01:49:23.106Z,100413.47
2022-08-05T01:51:55.934Z,100414.34
2022-08-05T01:54:27.318Z,100434.75
2022-08-05T01:58:11.439Z,100430.69
2022-08-05T01:59:47.305Z,100403.63
2022-08-05T02:02:15.969Z,100409.53
2022-08-05T02:04:46.171Z,100396.34
2022-08-05T02:07:22.174Z,100394.19
2022-08-05T02:09:50.985Z,100402.41
2022-08-05T02:12:27.861Z,100404.19
2022-08-05T02:15:17.794Z,100414.22
2022-08-05T02:18:28.812Z,100429.78
2022-08-05T02:21:00.084Z,100437.56
2022-08-05T02:23:33.793Z,100428.69
2022-08-05T02:26:06.205Z,100420.25
2022-08-05T02:28:45.979Z,100414.63
2022-08-05T02:31:17.153Z,100417.41
2022-08-05T02:33:59.799Z,100423.94
2022-08-05T02:36:31.437Z,100426.47
2022-08-05T02:39:01.983Z,100435.56
2022-08-05T02:41:43.304Z,100427.34
2022-08-05T02:44:19.670Z,100421.88
2022-08-05T02:46:59.816Z,100421.84
2022-08-05T02:49:36.504Z,100431.91
2022-08-05T02:52:08.804Z,100428.66
2022-08-05T02:54:37.753Z,100420.84
2022-08-05T02:58:10.177Z,100416.03
2022-08-05T02:59:59.479Z,100416.31
2022-08-05T03:02:29.640Z,100431.91
2022-08-05T03:04:58.152Z,100435.44
2022-08-05T03:07:59.198Z,100439.88
2022-08-05T03:10:24.484Z,100440.44
2022-08-05T03:12:53.016Z,100448.06
2022-08-05T03:15:20.554Z,100459.84
2022-08-05T03:17:47.298Z,100480.69
2022-08-05T03:20:14.041Z,100497.09
2022-08-05T03:22:44.107Z,100500.88
2022-08-05T03:25:31.984Z,100509.34
2022-08-05T03:28:03.120Z,100501.34
2022-08-05T03:30:34.043Z,100501.25
2022-08-05T03:33:03.135Z,100500.84
2022-08-05T03:35:33.701Z,100486.09
2022-08-05T03:38:01.379Z,100469.63
2022-08-05T03:40:32.110Z,100458.84
2022-08-05T03:43:15.736Z,100460.22
2022-08-05T03:45:57.713Z,100461.97
2022-08-05T03:48:29.128Z,100474.03
2022-08-05T03:52:35.402Z,100453.00
2022-08-05T03:55:06.960Z,100443.50
2022-08-05T03:57:16.248Z,100441.22
2022-08-05T04:00:05.940Z,100469.06
2022-08-05T04:02:58.774Z,100492.81
2022-08-05T04:05:33.208Z,100504.41
2022-08-05T04:08:05.785Z,100543.63
2022-08-05T04:10:50.994Z,100560.31
2022-08-05T04:13:18.678Z,100560.97
2022-08-05T04:15:52.634Z,100552.25
2022-08-05T04:18:30.405Z,100547.69
2022-08-05T04:20:58.327Z,100512.13
2022-08-05T04:24:05.432Z,100458.47
2022-08-05T04:26:13.747Z,100441.69
2022-08-05T04:28:40.471Z,100436.16
2022-08-05T04:31:18.099Z,100441.88
2022-08-05T04:34:19.201Z,100444.59
2022-08-05T04:36:49.642Z,100425.25
2022-08-05T04:39:20.967Z,100439.56
2022-08-05T04:41:51.201Z,100427.03
2022-08-05T04:44:29.075Z,100411.50
2022-08-05T04:46:58.434Z,100427.66
2022-08-05T04:49:39.042Z,100449.78
2022-08-05T04:52:12.955Z,100455.84
2022-08-05T04:54:39.636Z,100444.91
2022-08-05T04:57:06.362Z,100448.41
2022-08-05T04:59:39.002Z,100434.03
2022-08-05T05:02:41.321Z,100456.25
2022-08-05T05:05:02.753Z,100451.59
2022-08-05T05:07:31.914Z,100437.00
2022-08-05T05:10:02.015Z,100405.94
2022-08-05T05:12:29.322Z,100351.03
2022-08-05T05:14:56.161Z,100328.09
2022-08-05T05:17:24.847Z,100320.13
2022-08-05T05:20:11.833Z,100324.97
2022-08-05T05:22:40.733Z,100309.19
2022-08-05T05:25:16.182Z,100340.75
2022-08-05T05:27:45.638Z,100360.00
2022-08-05T05:30:29.419Z,100354.38
2022-08-05T05:33:14.189Z,100349.06
2022-08-05T05:35:47.502Z,100369.41
2022-08-05T05:38:22.731Z,100370.59
2022-08-05T05:40:55.098Z,100385.41
2022-08-05T05:43:54.483Z,100405.81
2022-08-05T05:46:15.850Z,100402.28
2022-08-05T05:48:44.801Z,100402.69
2022-08-05T05:51:21.647Z,100406.38
2022-08-05T05:53:57.624Z,100404.13
2022-08-05T05:56:31.728Z,100416.16
2022-08-05T05:59:05.841Z,100421.41
2022-08-05T06:01:39.378Z,100439.56
2022-08-05T06:04:13.058Z,100444.97
2022-08-05T06:06:46.422Z,100449.47
2022-08-05T06:09:17.287Z,100461.41
2022-08-05T06:12:00.035Z,100463.41
2022-08-05T06:14:32.114Z,100466.22
2022-08-05T06:17:02.004Z,100468.50
2022-08-05T06:19:56.818Z,100472.84
2022-08-05T06:22:34.367Z,100475.00
2022-08-05T06:25:59.717Z,100461.63
2022-08-05T06:28:12.510Z,100462.22
2022-08-05T06:30:36.493Z,100469.59
2022-08-05T06:33:03.213Z,100479.97
2022-08-05T06:36:03.497Z,100495.41
2022-08-05T06:38:16.666Z,100500.19
2022-08-05T06:40:44.477Z,100499.34
2022-08-05T06:43:57.194Z,100507.88
2022-08-05T06:46:06.900Z,100498.22
2022-08-05T06:48:50.266Z,100495.09
2022-08-05T06:51:29.399Z,100497.94
2022-08-05T06:54:01.991Z,100514.97
2022-08-05T06:56:30.319Z,100529.44
2022-08-05T06:59:01.721Z,100537.94
2022-08-05T07:01:32.297Z,100547.47
2022-08-05T07:04:02.261Z,100543.38
2022-08-05T07:06:29.677Z,100548.84
2022-08-05T07:08:56.300Z,100552.91
2022-08-05T07:11:28.020Z,100559.56
2022-08-05T07:14:20.735Z,100549.56
2022-08-05T07:18:08.338Z,100534.75
2022-08-05T07:20:22.939Z,100529.66
2022-08-05T07:22:34.534Z,100534.28
2022-08-05T07:25:22.089Z,100519.38
2022-08-05T07:27:57.421Z,100501.13
2022-08-05T07:30:34.485Z,100521.72
2022-08-05T07:33:09.178Z,100523.78
2022-08-05T07:36:04.264Z,100527.19
2022-08-05T07:38:33.977Z,100523.16
2022-08-05T07:42:09.498Z,100512.03
2022-08-05T07:43:56.460Z,100516.28
2022-08-05T07:46:26.011Z,100509.69
2022-08-05T07:49:03.654Z,100528.59
2022-08-05T07:51:48.893Z,100522.56
2022-08-05T07:54:30.866Z,100517.81
2022-08-05T07:57:50.564Z,100508.44
2022-08-05T07:59:48.965Z,100510.75
2022-08-05T08:02:17.592Z,100497.28
2022-08-05T08:04:47.424Z,100496.84
2022-08-05T08:07:15.068Z,100476.97
2022-08-05T08:09:42.466Z,100482.41
2022-08-05T08:12:29.706Z,100478.69
2022-08-05T08:15:02.474Z,100489.19
2022-08-05T08:17:30.892Z,100473.56
2022-08-05T08:20:21.081Z,100463.00
2022-08-05T08:22:50.186Z,100453.19
2022-08-05T08:25:26.883Z,100458.84
2022-08-05T08:28:05.064Z,100449.22
2022-08-05T08:30:40.864Z,100463.66
2022-08-05T08:33:14.873Z,100482.22
2022-08-05T08:35:53.166Z,100483.19
2022-08-05T08:38:35.672Z,100476.41
2022-08-05T08:41:10.078Z,100493.13
2022-08-05T08:45:17.127Z,100497.63
2022-08-05T08:46:31.141Z,100492.94
2022-08-05T08:50:03.749Z,100492.72
2022-08-05T08:52:03.717Z,100487.63
2022-08-05T08:54:33.966Z,100481.34
2022-08-05T08:57:05.576Z,100479.34
2022-08-05T08:59:41.898Z,100477.78
2022-08-05T09:02:14.630Z,100482.22
2022-08-05T09:04:58.634Z,100491.09
2022-08-05T09:07:39.545Z,100487.44
2022-08-05T09:10:19.679Z,100500.19
2022-08-05T09:12:51.094Z,100503.72
2022-08-05T09:15:20.259Z,100504.63
2022-08-05T09:17:49.499Z,100494.31
2022-08-05T09:20:36.163Z,100487.47
2022-08-05T09:23:18.980Z,100503.25
2022-08-05T09:26:01.136Z,100498.94
2022-08-05T09:28:33.745Z,100506.59
2022-08-05T09:31:23.011Z,100517.47
2022-08-05T09:34:04.490Z,100527.06
2022-08-05T09:36:55.034Z,100531.25
2022-08-05T09:39:39.495Z,100542.66
2022-08-05T09:42:17.213Z,100561.22
2022-08-05T09:44:51.441Z,100543.75
2022-08-05T09:47:23.328Z,100547.34
2022-08-05T09:50:00.762Z,100538.75
2022-08-05T09:52:30.522Z,100523.94
2022-08-05T09:55:06.309Z,100525.63
2022-08-05T09:57:46.015Z,100532.50
2022-08-05T10:00:17.369Z,100536.03
2022-08-05T10:02:54.525Z,100548.03
2022-08-05T10:05:26.723Z,100547.00
2022-08-05T10:08:35.462Z,100537.72
2022-08-05T10:10:53.887Z,100532.22
2022-08-05T10:13:47.288Z,100538.13
2022-08-05T10:16:41.765Z,100533.88
2022-08-05T10:19:59.173Z,100539.38
2022-08-05T10:22:25.614Z,100546.75
2022-08-05T10:24:57.906Z,100542.34
2022-08-05T10:27:26.073Z,100545.47
2022-08-05T10:31:20.331Z,100552.00
2022-08-05T10:33:03.151Z,100559.78
2022-08-05T10:35:33.677Z,100558.06
2022-08-05T10:38:11.902Z,100556.78
2022-08-05T10:40:52.374Z,100556.97
2022-08-05T10:43:43.301Z,100562.81
2022-08-05T10:46:13.442Z,100554.97
2022-08-05T10:48:57.027Z,100558.59
2022-08-05T10:51:29.025Z,100558.13
2022-08-05T10:54:23.010Z,100560.63
2022-08-05T10:56:57.376Z,100552.34
2022-08-05T11:00:04.363Z,100558.69
2022-08-05T11:02:38.451Z,100560.16
2022-08-05T11:05:11.742Z,100557.84
2022-08-05T11:08:21.663Z,100563.88
2022-08-05T11:11:00.894Z,100566.97
2022-08-05T11:13:55.014Z,100573.97
2022-08-05T11:16:33.844Z,100578.47
2022-08-05T11:20:09.879Z,100570.81
2022-08-05T11:22:42.143Z,100565.53
2022-08-05T11:26:05.896Z,100564.84
2022-08-05T11:28:17.056Z,100567.41
2022-08-05T11:30:58.291Z,100563.06
2022-08-05T11:33:34.753Z,100570.75
2022-08-05T11:36:34.662Z,100581.28
2022-08-05T11:39:09.040Z,100577.03
2022-08-05T11:42:01.284Z,100570.47
2022-08-05T11:44:53.433Z,100557.03
2022-08-05T11:47:25.211Z,100559.31
2022-08-05T11:50:14.436Z,100566.19
2022-08-05T11:52:41.719Z,100580.44
2022-08-05T11:55:12.672Z,100592.47
2022-08-05T11:58:08.436Z,100593.06
2022-08-05T12:00:38.549Z,100599.44
2022-08-05T12:03:44.894Z,100600.13
2022-08-05T12:06:25.847Z,100611.16
2022-08-05T12:08:54.486Z,100625.41
2022-08-05T12:11:28.377Z,100633.72
2022-08-05T12:14:08.496Z,100627.03
2022-08-05T12:16:45.506Z,100629.56
2022-08-05T12:20:16.659Z,100644.66
2022-08-05T12:22:01.676Z,100642.09
2022-08-05T12:24:28.355Z,100641.28
2022-08-05T12:26:56.983Z,100649.22
2022-08-05T12:29:26.845Z,100655.72
2022-08-05T12:31:55.882Z,100658.81
2022-08-05T12:34:31.349Z,100662.53
2022-08-05T12:37:10.585Z,100670.38
2022-08-05T12:39:41.134Z,100676.25
2022-08-05T12:42:14.273Z,100677.94
2022-08-05T12:44:43.027Z,100685.22
2022-08-05T12:47:12.539Z,100691.91
2022-08-05T12:50:03.870Z,100710.72
2022-08-05T12:52:39.507Z,100711.06
2022-08-05T12:55:22.248Z,100711.38
2022-08-05T12:58:38.469Z,100719.25
2022-08-05T13:02:03.963Z,100726.66
2022-08-05T13:03:31.913Z,100726.34
2022-08-05T13:06:00.847Z,100725.84
2022-08-05T13:08:32.295Z,100735.34
2022-08-05T13:11:01.402Z,100736.25
2022-08-05T13:14:06.685Z,100737.16
2022-08-05T13:16:17.210Z,100742.78
2022-08-05T13:18:55.249Z,100750.91
2022-08-05T13:21:28.584Z,100759.44
2022-08-05T13:24:05.679Z,100758.56
2022-08-05T13:26:32.803Z,100758.81
2022-08-05T13:28:59.573Z,100771.28
2022-08-05T13:32:03.430Z,100779.31
2022-08-05T13:34:22.024Z,100784.94
2022-08-05T13:36:52.297Z,100790.31
2022-08-05T13:40:13.896Z,100779.81
2022-08-05T13:42:06.500Z,100786.31
2022-08-05T13:44:35.052Z,100795.44
2022-08-05T13:47:08.864Z,100801.78
2022-08-05T13:49:36.441Z,100798.03
2022-08-05T13:52:29.231Z,100801.97
2022-08-05T13:54:57.133Z,100801.41
2022-08-05T13:57:26.313Z,100793.00
2022-08-05T14:00:13.271Z,100794.84
2022-08-05T14:02:39.957Z,100789.56
2022-08-05T14:05:15.431Z,100799.09
2022-08-05T14:08:00.111Z,100800.44
2022-08-05T14:10:32.579Z,100791.75
2022-08-05T14:12:59.993Z,100789.59
2022-08-05T14:16:07.446Z,100794.78
2022-08-05T14:18:17.592Z,100791.19
2022-08-05T14:20:49.009Z,100802.25
2022-08-05T14:23:25.862Z,100797.16
2022-08-05T14:25:59.059Z,100799.22
2022-08-05T14:28:30.747Z,100800.44
2022-08-05T14:31:01.572Z,100811.03
2022-08-05T14:33:56.729Z,100811.78
2022-08-05T14:36:15.599Z,100811.31
2022-08-05T14:38:47.367Z,100811.88
2022-08-05T14:41:14.011Z,100815.53
2022-08-05T14:43:59.694Z,100817.13
2022-08-05T14:46:31.413Z,100830.06
2022-08-05T14:49:06.307Z,100834.56
2022-08-05T14:51:35.834Z,100840.50
2022-08-05T14:54:27.151Z,100841.63
2022-08-05T14:56:51.139Z,100841.94
2022-08-05T14:59:21.924Z,100849.13
2022-08-05T15:01:49.805Z,100847.78
2022-08-05T15:04:20.730Z,100853.53
2022-08-05T15:06:52.160Z,100851.72
2022-08-05T15:09:51.355Z,100863.53
2022-08-05T15:12:09.007Z,100871.19
2022-08-05T15:14:48.231Z,100872.91
2022-08-05T15:17:47.171Z,100882.13
2022-08-05T15:20:08.851Z,100872.16
2022-08-05T15:22:36.952Z,100868.47
2022-08-05T15:25:13.864Z,100872.63
2022-08-05T15:27:43.022Z,100872.63
2022-08-05T15:30:18.883Z,100876.50
2022-08-05T15:32:46.571Z,100884.94
2022-08-05T15:35:13.308Z,100886.69
2022-08-05T15:38:32.797Z,100896.13
2022-08-05T15:40:59.540Z,100896.34
2022-08-05T15:43:20.553Z,100890.31
2022-08-05T15:45:47.588Z,100882.66
2022-08-05T15:48:15.288Z,100891.69
2022-08-05T15:50:43.933Z,100900.97
2022-08-05T15:53:12.981Z,100898.78
2022-08-05T15:56:02.374Z,100897.22
2022-08-05T15:58:29.247Z,100898.03
2022-08-05T16:01:11.644Z,100898.97
2022-08-05T16:03:43.658Z,100910.03
2022-08-05T16:06:11.357Z,100910.63
2022-08-05T16:08:38.760Z,100919.19
2022-08-05T16:11:08.026Z,100913.09
2022-08-05T16:13:35.298Z,100905.13
2022-08-05T16:16:03.554Z,100895.31
2022-08-05T16:18:32.960Z,100899.69
2022-08-05T16:21:04.842Z,100903.53
2022-08-05T16:23:53.141Z,100909.47
2022-08-05T16:26:26.170Z,100909.47
2022-08-05T16:28:53.511Z,100913.38
2022-08-05T16:31:21.670Z,100918.34
2022-08-05T16:33:48.431Z,100911.16
2022-08-05T16:36:15.116Z,100919.44
2022-08-05T16:38:54.293Z,100911.25
2022-08-05T16:42:27.782Z,100918.34
2022-08-05T16:44:11.565Z,100921.78
2022-08-05T16:46:41.106Z,100922.94
2022-08-05T16:49:09.917Z,100928.09
2022-08-05T16:51:42.903Z,100931.50
2022-08-05T16:54:25.778Z,100931.09
2022-08-05T16:56:54.263Z,100933.38
2022-08-05T16:59:20.993Z,100933.47
2022-08-05T17:01:53.235Z,100935.09
2022-08-05T17:04:21.365Z,100927.28
2022-08-05T17:06:53.045Z,100934.22
2022-08-05T17:09:20.930Z,100945.09
2022-08-05T17:11:50.851Z,100932.50
2022-08-05T17:14:22.512Z,100930.66
2022-08-05T17:17:04.399Z,100932.56
2022-08-05T17:19:31.341Z,100937.47
2022-08-05T17:21:58.584Z,100943.50
2022-08-05T17:24:34.995Z,100943.06
2022-08-05T17:27:05.819Z,100944.25
2022-08-05T17:29:40.215Z,100953.25
2022-08-05T17:32:17.165Z,100942.38
2022-08-05T17:34:46.194Z,100939.44
2022-08-05T17:37:40.227Z,100947.31
2022-08-05T17:40:01.647Z,100952.34
2022-08-05T17:42:30.114Z,100958.63
2022-08-05T17:44:59.019Z,100958.34
2022-08-05T17:47:27.104Z,100944.59
2022-08-05T17:50:03.811Z,100952.34
2022-08-05T17:52:34.824Z,100956.34
2022-08-05T17:55:21.258Z,100959.03
2022-08-05T17:57:48.699Z,100970.16
2022-08-05T18:00:17.422Z,100972.56
2022-08-05T18:02:47.238Z,100973.31
2022-08-05T18:05:17.050Z,100972.28
2022-08-05T18:07:44.710Z,100966.13
2022-08-05T18:10:20.363Z,100967.56
2022-08-05T18:12:49.438Z,100974.66
2022-08-05T18:15:16.360Z,100966.03
2022-08-05T18:18:01.415Z,100972.66
2022-08-05T18:20:32.097Z,100977.28
2022-08-05T18:23:00.633Z,100981.50
2022-08-05T18:25:38.972Z,100974.88
2022-08-05T18:28:07.015Z,100976.13
2022-08-05T18:30:40.171Z,100979.94
2022-08-05T18:33:08.589Z,100985.00
2022-08-05T18:36:00.009Z,100997.47
2022-08-05T18:38:28.546Z,100999.25
2022-08-05T18:41:56.163Z,101003.34
2022-08-05T18:43:43.272Z,101006.34
2022-08-05T18:46:20.111Z,101014.44
2022-08-05T18:48:51.797Z,101011.00
2022-08-05T18:52:04.624Z,101007.44
2022-08-05T18:54:25.686Z,101024.19
2022-08-05T18:56:54.208Z,101012.44
2022-08-05T18:59:44.060Z,101028.59
2022-08-05T19:02:11.330Z,101034.19
2022-08-05T19:05:02.459Z,101037.63
2022-08-05T19:07:46.087Z,101042.00
2022-08-05T19:10:14.893Z,101045.81
2022-08-05T19:12:43.098Z,101047.66
2022-08-05T19:15:25.251Z,101054.22
2022-08-05T19:18:08.550Z,101062.28
2022-08-05T19:20:37.091Z,101064.00
2022-08-05T19:23:08.644Z,101066.66
2022-08-05T19:26:01.923Z,101076.31
2022-08-05T19:28:33.761Z,101081.31
2022-08-05T19:31:04.821Z,101085.03
2022-08-05T19:33:36.842Z,101095.25
2022-08-05T19:36:07.277Z,101104.28
2022-08-05T19:38:36.744Z,101106.31
2022-08-05T19:41:07.205Z,101108.06
2022-08-05T19:44:05.830Z,101114.69
2022-08-05T19:46:30.214Z,101118.91
2022-08-05T19:49:03.451Z,101132.25
2022-08-05T19:52:09.007Z,101133.22
2022-08-05T19:54:31.586Z,101136.50
2022-08-05T19:56:59.751Z,101141.31
2022-08-05T19:59:56.657Z,101147.34
2022-08-05T20:02:17.555Z,101155.34
2022-08-05T20:04:45.858Z,101153.81
2022-08-05T20:07:13.942Z,101155.53
2022-08-05T20:09:53.541Z,101155.53
2022-08-05T20:12:23.495Z,101167.97
2022-08-05T20:14:52.386Z,101171.66
2022-08-05T20:17:23.723Z,101172.47
2022-08-05T20:19:56.948Z,101176.25
2022-08-05T20:22:27.173Z,101176.22
2022-08-05T20:24:55.752Z,101182.78
2022-08-05T20:27:26.951Z,101180.44
2022-08-05T20:29:58.581Z,101188.50
2022-08-05T20:32:27.270Z,101194.50
2022-08-05T20:34:54.622Z,101193.78
2022-08-05T20:38:04.989Z,101193.50
2022-08-05T20:40:09.045Z,101202.94
2022-08-05T20:42:35.860Z,101209.66
2022-08-05T20:45:04.122Z,101208.97
2022-08-05T20:47:33.241Z,101216.88
2022-08-05T20:50:02.285Z,101222.41
2022-08-05T20:52:30.176Z,101229.47
2022-08-05T20:55:55.025Z,101223.47
2022-08-05T20:57:45.135Z,101230.88
2022-08-05T21:00:41.270Z,101237.88
2022-08-05T21:03:06.336Z,101230.03
2022-08-05T21:05:48.280Z,101234.66
2022-08-05T21:08:26.804Z,101236.59
2022-08-05T21:11:00.263Z,101242.16
2022-08-05T21:13:47.078Z,101248.72
2022-08-05T21:16:19.285Z,101251.25
2022-08-05T21:18:46.213Z,101255.47
2022-08-05T21:21:13.011Z,101252.69
2022-08-05T21:23:39.782Z,101255.63
2022-08-05T21:26:14.554Z,101253.69
2022-08-05T21:28:47.763Z,101252.91
2022-08-05T21:31:18.319Z,101256.72
2022-08-05T21:33:47.586Z,101257.91
2022-08-05T21:36:27.509Z,101262.97
2022-08-05T21:38:57.228Z,101276.78
2022-08-05T21:41:26.016Z,101271.88
2022-08-05T21:44:03.893Z,101274.97
2022-08-05T21:46:34.524Z,101276.09
2022-08-05T21:49:07.283Z,101283.38
2022-08-05T21:52:23.054Z,101282.78
2022-08-05T21:54:27.915Z,101288.53
2022-08-05T21:57:15.397Z,101292.22
2022-08-05T22:00:01.908Z,101291.22
2022-08-05T22:02:39.266Z,101294.09
2022-08-05T22:05:09.234Z,101302.25
2022-08-05T22:07:39.834Z,101293.81
2022-08-05T22:10:26.718Z,101303.31
2022-08-05T22:12:57.211Z,101306.09
2022-08-05T22:16:02.491Z,101308.34
2022-08-05T22:18:11.298Z,101306.44
2022-08-05T22:20:39.103Z,101310.63
2022-08-05T22:24:03.006Z,101304.66
2022-08-05T22:26:30.852Z,101315.31
2022-08-05T22:28:57.669Z,101321.25
2022-08-05T22:31:25.063Z,101317.63
2022-08-05T22:34:01.187Z,101314.41
2022-08-05T22:36:28.966Z,101316.38
2022-08-05T22:38:56.830Z,101321.25
2022-08-05T22:41:26.169Z,101324.28
2022-08-05T22:44:12.082Z,101328.09
2022-08-05T22:46:40.768Z,101330.56
2022-08-05T22:49:12.193Z,101331.47
2022-08-05T22:52:05.085Z,101332.31
2022-08-05T22:54:35.614Z,101326.47
2022-08-05T22:57:03.674Z,101325.56
2022-08-05T22:59:43.872Z,101334.56
2022-08-05T23:02:16.462Z,101334.13
2022-08-05T23:04:51.314Z,101344.22
2022-08-05T23:07:21.810Z,101337.97
2022-08-05T23:09:53.490Z,101340.22
2022-08-05T23:12:32.806Z,101353.16
2022-08-05T23:15:08.767Z,101350.91
2022-08-05T23:17:37.975Z,101355.50
2022-08-05T23:20:24.567Z,101356.88
2022-08-05T23:22:55.983Z,101361.94
2022-08-05T23:25:54.599Z,101359.66
2022-08-05T23:28:10.929Z,101358.78
2022-08-05T23:30:40.418Z,101357.22
2022-08-05T23:33:16.046Z,101360.44
2022-08-05T23:35:45.799Z,101354.09
2022-08-05T23:38:12.468Z,101362.34
2022-08-05T23:40:42.286Z,101361.81
2022-08-05T23:43:25.521Z,101363.69
2022-08-05T23:46:02.824Z,101369.66
2022-08-05T23:48:29.520Z,101370.13
2022-08-05T23:50:56.269Z,101370.25
2022-08-05T23:53:28.534Z,101380.19
2022-08-05T23:56:12.219Z,101369.34
2022-08-05T23:58:38.975Z,101375.22
